Time;durP1;ratioP1;P1;durP2;ratioP2;P2;SDS_P1;SDS_P2;PMS_P1;PMS_P2;Temp;Humidity;BMP_temperature;BMP_pressure;BME280_temperature;BME280_humidity;BME280_pressure;Samples;Min_cycle;Max_cycle;Signal;HPM_P1;HPM_P2
2022/08/02 00:00:13;;;;;;;7.47;2.22;;;;;;;20.13;48.73;95310.88;5067586;28;20054;-79
2022/08/02 00:02:42;;;;;;;2.45;1.90;;;;;;;20.12;47.74;95310.03;5067560;28;20059;-79
2022/08/02 00:05:07;;;;;;;3.30;1.67;;;;;;;20.11;47.87;95300.22;5067026;28;20067;-79
2022/08/02 00:07:33;;;;;;;5.38;1.98;;;;;;;20.12;48.22;95298.28;5067105;28;20110;-79
2022/08/02 00:09:59;;;;;;;3.30;1.80;;;;;;;20.15;48.22;95295.13;5066970;28;20077;-79
2022/08/02 00:12:24;;;;;;;2.75;1.90;;;;;;;20.15;48.00;95286.97;5067260;28;20039;-79
2022/08/02 00:14:50;;;;;;;2.35;1.83;;;;;;;20.12;47.83;95293.69;5067182;28;20031;-79
2022/08/02 00:17:15;;;;;;;3.92;1.88;;;;;;;20.15;47.95;95297.00;5050420;28;20071;-79
2022/08/02 00:19:41;;;;;;;2.58;1.95;;;;;;;20.11;48.08;95297.50;5067465;28;20421;-79
2022/08/02 00:22:06;;;;;;;2.83;1.90;;;;;;;20.08;48.46;95300.69;5085239;28;20032;-79
2022/08/02 00:24:31;;;;;;;4.88;2.22;;;;;;;20.07;48.75;95307.19;5085483;28;20031;-79
2022/08/02 00:26:57;;;;;;;3.83;2.00;;;;;;;19.98;48.57;95297.72;5085152;28;20028;-79
2022/08/02 00:29:22;;;;;;;7.10;2.20;;;;;;;19.96;48.72;95291.69;5033465;28;20487;-79
2022/08/02 00:31:48;;;;;;;4.65;2.33;;;;;;;19.86;48.72;95284.97;5067029;28;20028;-79
2022/08/02 00:34:13;;;;;;;4.18;1.98;;;;;;;19.93;48.40;95289.44;5084675;28;20024;-79
2022/08/02 00:36:39;;;;;;;2.55;1.70;;;;;;;19.91;48.28;95288.88;5067156;28;20137;-79
2022/08/02 00:39:04;;;;;;;3.67;2.30;;;;;;;19.86;48.30;95295.03;5079819;28;20450;-78
2022/08/02 00:41:31;;;;;;;2.80;2.17;;;;;;;19.79;48.61;95289.72;5064753;28;20053;-80
2022/08/02 00:43:56;;;;;;;3.25;2.20;;;;;;;19.81;48.36;95293.03;5064695;28;20029;-79
2022/08/02 00:46:22;;;;;;;3.38;2.10;;;;;;;19.74;48.73;95295.03;5064875;28;20042;-78
2022/08/02 00:48:47;;;;;;;3.03;2.33;;;;;;;19.38;49.66;95295.91;5064638;28;20033;-78
2022/08/02 00:51:13;;;;;;;3.45;2.17;;;;;;;19.57;49.12;95287.59;5063401;28;20499;-78
2022/08/02 00:53:39;;;;;;;3.90;2.10;;;;;;;19.55;49.55;95292.47;5047412;28;20020;-78
2022/08/02 00:56:04;;;;;;;3.45;2.20;;;;;;;19.56;49.27;95294.13;5047248;28;20449;-78
2022/08/02 00:58:30;;;;;;;3.70;2.65;;;;;;;19.55;49.41;95288.91;5064383;28;20029;-79
2022/08/02 01:00:56;;;;;;;4.35;2.20;;;;;;;19.45;49.84;95286.78;5065533;28;20036;-79
2022/08/02 01:03:23;;;;;;;2.70;2.25;;;;;;;19.43;49.89;95287.03;5065166;28;20021;-79
2022/08/02 01:05:49;;;;;;;3.55;2.30;;;;;;;19.44;50.19;95294.09;5063923;28;20482;-79
2022/08/02 01:08:14;;;;;;;2.65;1.95;;;;;;;19.38;50.13;95285.03;5064747;28;20514;-79
2022/08/02 01:10:39;;;;;;;5.30;2.20;;;;;;;19.39;50.01;95288.56;5064400;28;20506;-80
2022/08/02 01:13:05;;;;;;;3.10;2.35;;;;;;;19.38;49.27;95284.19;5064031;28;20028;-79
2022/08/02 01:15:31;;;;;;;3.00;2.28;;;;;;;19.28;49.62;95282.09;5047174;28;20092;-79
2022/08/02 01:18:14;;;;;;;3.70;1.98;;;;;;;19.23;49.88;95285.47;5047095;28;20040;-79
2022/08/02 01:21:04;;;;;;;3.65;2.38;;;;;;;19.27;49.75;95274.97;5064240;28;20020;-79
2022/08/02 01:23:44;;;;;;;3.13;2.38;;;;;;;19.31;49.70;95283.50;5065188;28;20089;-79
2022/08/02 01:26:46;;;;;;;2.88;2.30;;;;;;;19.33;49.69;95287.63;5064954;28;20024;-78
2022/08/02 01:29:21;;;;;;;3.50;2.08;;;;;;;19.33;49.87;95282.19;5067581;28;20059;-79
2022/08/02 01:31:58;;;;;;;3.45;2.20;;;;;;;19.29;50.09;95285.59;5067464;28;20111;-79
2022/08/02 01:34:27;;;;;;;4.78;2.47;;;;;;;19.18;50.18;95288.09;5067367;28;20483;-79
2022/08/02 01:36:57;;;;;;;2.80;2.00;;;;;;;19.09;50.39;95290.31;5067204;28;20029;-79
2022/08/02 01:39:25;;;;;;;3.15;2.33;;;;;;;19.04;50.90;95290.16;5066858;28;20044;-79
2022/08/02 01:41:51;;;;;;;3.28;2.13;;;;;;;18.93;51.29;95289.09;5066977;28;20028;-79
2022/08/02 01:44:16;;;;;;;3.33;2.45;;;;;;;18.82;51.27;95288.00;5033376;28;20403;-79
2022/08/02 01:46:42;;;;;;;5.78;2.42;;;;;;;18.81;51.24;95289.09;5050535;28;20024;-79
2022/08/02 01:49:12;;;;;;;4.72;2.78;;;;;;;18.72;51.33;95287.72;5050566;28;20093;-79
2022/08/02 01:54:22;;;;;;;4.22;2.45;;;;;;;18.58;52.28;95295.25;5053037;28;20564;-79
2022/08/02 01:56:47;;;;;;;3.42;2.60;;;;;;;18.62;52.32;95282.91;5050575;28;20111;-78
2022/08/02 01:59:14;;;;;;;3.85;2.70;;;;;;;18.62;52.55;95283.69;5074521;28;20028;-79
2022/08/02 02:01:40;;;;;;;3.30;2.60;;;;;;;18.65;52.30;95293.28;5050410;28;20056;-79
2022/08/02 02:04:07;;;;;;;4.93;2.50;;;;;;;18.72;52.29;95301.31;5050334;28;20024;-79
2022/08/02 02:06:32;;;;;;;4.82;2.85;;;;;;;18.70;51.88;95300.75;5050682;28;20516;-79
2022/08/02 02:08:57;;;;;;;3.65;2.67;;;;;;;18.66;51.90;95294.94;5050283;28;20062;-79
2022/08/02 02:11:23;;;;;;;3.47;2.75;;;;;;;18.59;52.35;95294.19;5066696;28;20027;-79
2022/08/02 02:13:48;;;;;;;3.63;2.78;;;;;;;18.58;52.24;95296.09;5067050;28;20020;-79
2022/08/02 02:16:14;;;;;;;3.50;2.63;;;;;;;18.56;51.94;95290.06;5067014;28;20024;-79
2022/08/02 02:18:40;;;;;;;4.38;2.85;;;;;;;18.51;52.01;95287.22;5049616;28;20086;-79
2022/08/02 02:21:06;;;;;;;4.78;3.30;;;;;;;18.50;52.60;95294.53;5066489;28;20028;-80
2022/08/02 02:23:31;;;;;;;3.72;2.80;;;;;;;18.51;52.10;95293.47;5066616;28;20498;-79
2022/08/02 02:25:57;;;;;;;3.17;2.70;;;;;;;18.44;52.48;95286.47;5049615;28;20102;-79
2022/08/02 02:28:28;;;;;;;4.47;2.70;;;;;;;18.45;51.90;95288.97;5066235;28;20036;-77
2022/08/02 02:30:57;;;;;;;3.60;2.92;;;;;;;18.36;52.19;95290.34;5050952;28;20039;-78
2022/08/02 02:33:22;;;;;;;3.40;2.88;;;;;;;18.34;52.43;95285.16;5033280;28;20036;-78
2022/08/02 02:35:49;;;;;;;4.22;3.13;;;;;;;18.32;53.04;95295.41;5049815;28;20020;-78
2022/08/02 02:38:15;;;;;;;4.50;2.80;;;;;;;18.35;52.64;95292.22;5066184;28;20537;-78
2022/08/02 02:40:41;;;;;;;4.13;2.70;;;;;;;18.36;52.85;95284.94;5047877;28;20090;-79
2022/08/02 02:43:06;;;;;;;5.65;2.90;;;;;;;18.33;53.36;95286.19;5049275;28;20036;-78
2022/08/02 02:45:31;;;;;;;4.68;3.00;;;;;;;18.25;53.66;95286.53;5049325;28;20103;-78
2022/08/02 02:47:57;;;;;;;4.45;3.10;;;;;;;18.29;53.16;95287.72;5032558;28;20059;-78
2022/08/02 02:50:22;;;;;;;3.72;3.05;;;;;;;18.29;52.94;95293.16;5049608;28;20029;-78
2022/08/02 02:52:48;;;;;;;4.57;2.83;;;;;;;18.27;53.49;95301.53;5049155;28;20028;-78
2022/08/02 02:55:13;;;;;;;5.75;2.90;;;;;;;18.26;53.75;95299.03;5049471;28;20486;-79
2022/08/02 02:57:39;;;;;;;4.53;2.95;;;;;;;18.25;53.29;95298.22;5065834;28;20024;-78
2022/08/02 03:00:06;;;;;;;3.90;2.85;;;;;;;18.23;53.74;95302.22;5049240;28;20502;-79
2022/08/02 03:02:31;;;;;;;4.85;3.15;;;;;;;18.24;53.65;95295.72;5066167;28;20032;-78
2022/08/02 03:04:57;;;;;;;8.80;3.22;;;;;;;18.22;53.82;95300.53;5048574;28;20032;-79
2022/08/02 03:07:22;;;;;;;7.28;3.00;;;;;;;18.19;54.21;95296.41;5048876;28;20025;-79
2022/08/02 03:09:48;;;;;;;4.35;2.67;;;;;;;18.17;53.70;95287.66;5047819;28;20045;-78
2022/08/02 03:12:13;;;;;;;5.30;2.78;;;;;;;18.12;53.17;95285.63;5048888;28;20605;-79
2022/08/02 03:14:42;;;;;;;4.40;2.60;;;;;;;18.06;52.80;95288.41;5066676;28;20479;-79
2022/08/02 03:17:07;;;;;;;5.47;3.10;;;;;;;18.07;52.21;95299.03;5048581;28;20029;-78
2022/08/02 03:19:33;;;;;;;3.92;2.60;;;;;;;18.08;53.32;95298.00;5066973;28;20030;-80
2022/08/02 03:21:58;;;;;;;6.95;4.20;;;;;;;17.96;54.03;95303.34;5065019;28;20029;-78
2022/08/02 03:24:24;;;;;;;6.82;3.10;;;;;;;17.73;54.52;95310.28;5065274;28;20025;-78
2022/08/02 03:26:49;;;;;;;4.22;3.03;;;;;;;17.55;54.81;95305.69;5065039;28;20036;-78
2022/08/02 03:29:14;;;;;;;8.65;3.60;;;;;;;17.57;54.80;95309.00;5066299;28;20047;-79
2022/08/02 03:31:40;;;;;;;7.85;3.60;;;;;;;17.61;54.81;95302.06;5066557;28;20226;-79
2022/08/02 03:34:06;;;;;;;4.63;3.17;;;;;;;17.70;54.74;95293.63;5064634;28;20107;-79
2022/08/02 03:36:31;;;;;;;9.80;3.47;;;;;;;17.72;54.75;95302.34;5064781;28;20021;-80
2022/08/02 03:38:57;;;;;;;6.38;3.30;;;;;;;17.83;55.12;95301.59;5066808;28;20124;-79
2022/08/02 03:41:22;;;;;;;6.70;3.95;;;;;;;17.81;55.11;95309.16;5051663;28;20434;-79
2022/08/02 03:43:49;;;;;;;8.95;3.63;;;;;;;17.86;54.59;95308.47;5034623;28;20504;-78
2022/08/02 03:46:18;;;;;;;6.07;3.67;;;;;;;17.85;54.71;95306.81;5052157;28;20579;-79
2022/08/02 03:48:43;;;;;;;8.63;3.80;;;;;;;17.92;54.57;95313.00;5072278;28;20040;-79
2022/08/02 03:51:09;;;;;;;9.20;3.60;;;;;;;17.95;54.30;95309.00;5070100;28;20028;-79
2022/08/02 03:53:35;;;;;;;14.30;4.07;;;;;;;17.99;54.90;95312.94;5051655;28;20089;-78
2022/08/02 03:56:00;;;;;;;23.63;4.15;;;;;;;18.00;54.34;95315.41;5050584;28;20035;-78
2022/08/02 03:58:26;;;;;;;14.73;3.92;;;;;;;18.02;54.77;95320.59;5051223;28;20047;-79
2022/08/02 04:00:52;;;;;;;12.65;5.20;;;;;;;18.07;54.68;95319.94;5085804;28;20089;-79
2022/08/02 04:03:18;;;;;;;11.50;6.07;;;;;;;18.02;54.65;95317.91;5086148;28;20027;-79
2022/08/02 04:05:44;;;;;;;16.20;5.60;;;;;;;18.02;54.19;95326.84;5053882;28;20020;-78
2022/08/02 04:08:09;;;;;;;13.05;5.95;;;;;;;18.00;54.35;95328.13;5085828;28;20036;-79
2022/08/02 04:11:29;;;;;;;10.63;3.80;;;;;;;17.99;54.63;95323.78;5086001;28;20531;-79
2022/08/02 04:13:20;;;;;;;7.28;3.85;;;;;;;18.05;54.66;95344.56;5085458;28;20063;-79
2022/08/02 04:15:45;;;;;;;10.15;3.17;;;;;;;18.04;54.10;95337.47;5051311;28;20047;-77
2022/08/02 04:18:11;;;;;;;9.15;3.67;;;;;;;18.07;54.82;95344.34;5050159;28;20403;-80
2022/08/02 04:20:36;;;;;;;14.73;3.70;;;;;;;18.12;54.85;95341.81;5050697;28;20078;-79
2022/08/02 04:23:09;;;;;;;10.48;3.30;;;;;;;18.21;54.40;95336.91;5050456;28;20069;-79
2022/08/02 04:25:34;;;;;;;9.23;3.10;;;;;;;18.26;54.64;95340.59;5067352;28;20016;-79
2022/08/02 04:28:00;;;;;;;9.55;3.65;;;;;;;18.24;55.09;95334.56;5050498;28;20044;-78
2022/08/02 04:30:25;;;;;;;11.35;3.47;;;;;;;18.36;54.67;95339.22;5066767;28;20024;-79
2022/08/02 04:32:51;;;;;;;12.23;4.13;;;;;;;18.49;54.14;95338.22;5050696;28;20089;-79
2022/08/02 04:35:17;;;;;;;13.15;3.25;;;;;;;18.63;53.86;95334.25;5050135;28;20032;-80
2022/08/02 04:37:43;;;;;;;8.45;3.42;;;;;;;18.77;52.89;95339.50;5067783;28;20024;-79
2022/08/02 04:40:11;;;;;;;6.63;3.00;;;;;;;18.92;52.38;95336.34;5050156;28;20075;-78
2022/08/02 04:42:37;;;;;;;6.75;2.88;;;;;;;19.04;52.38;95333.66;5066895;28;20115;-79
2022/08/02 04:45:04;;;;;;;6.95;3.38;;;;;;;19.11;53.05;95331.69;5050316;28;20468;-79
2022/08/02 04:47:30;;;;;;;5.10;3.30;;;;;;;19.26;51.55;95335.84;5049863;28;20028;-79
2022/08/02 04:49:56;;;;;;;5.78;3.03;;;;;;;19.39;52.36;95343.78;5050203;28;20167;-79
2022/08/02 04:52:21;;;;;;;5.43;3.10;;;;;;;19.55;51.75;95346.88;5066412;28;20499;-79
2022/08/02 04:54:46;;;;;;;6.35;2.63;;;;;;;19.68;50.41;95339.53;5085362;28;20020;-79
2022/08/02 04:59:56;;;;;;;5.90;2.90;;;;;;;19.74;49.67;95341.28;5085626;28;20422;-79
2022/08/02 05:02:21;;;;;;;4.82;2.90;;;;;;;20.00;49.30;95345.44;5066485;28;20032;-78
2022/08/02 05:04:47;;;;;;;5.90;3.15;;;;;;;20.24;50.27;95350.00;5088957;28;20027;-79
2022/08/02 05:07:12;;;;;;;4.75;3.20;;;;;;;20.42;49.74;95350.91;5054014;28;20035;-79
2022/08/02 05:09:37;;;;;;;8.85;3.13;;;;;;;20.57;49.06;95343.03;5053759;28;20035;-79
2022/08/02 05:12:03;;;;;;;4.57;3.42;;;;;;;20.66;49.15;95351.66;5070907;28;20039;-78
2022/08/02 05:14:28;;;;;;;5.20;3.53;;;;;;;20.79;49.01;95349.69;5070274;28;20095;-79
2022/08/02 05:16:54;;;;;;;10.35;3.53;;;;;;;20.93;47.32;95353.81;5088941;28;20020;-78
2022/08/02 05:19:19;;;;;;;6.82;3.22;;;;;;;21.02;46.77;95354.25;5070660;28;20089;-80
2022/08/02 05:21:45;;;;;;;5.80;3.65;;;;;;;21.08;46.38;95361.44;5088721;28;20032;-79
2022/08/02 05:24:10;;;;;;;8.68;3.30;;;;;;;21.27;47.58;95355.75;5070586;28;20024;-79
2022/08/02 05:26:35;;;;;;;4.80;2.90;;;;;;;21.39;47.28;95352.94;5088194;28;20028;-80
2022/08/02 05:29:02;;;;;;;6.05;3.28;;;;;;;21.49;46.04;95342.19;5089057;28;20124;-79
2022/08/02 05:31:28;;;;;;;6.13;3.00;;;;;;;21.65;46.29;95347.88;5053399;28;20016;-80
2022/08/02 05:33:53;;;;;;;4.82;2.97;;;;;;;21.63;45.82;95351.94;5070678;28;20031;-79
2022/08/02 05:36:18;;;;;;;3.83;2.83;;;;;;;21.73;45.76;95350.19;5088274;28;20081;-80
2022/08/02 05:38:44;;;;;;;3.60;2.92;;;;;;;21.91;45.86;95350.19;5088673;28;20016;-79
2022/08/02 05:41:09;;;;;;;4.80;2.92;;;;;;;22.05;46.10;95358.84;5088152;28;20097;-80
2022/08/02 05:43:35;;;;;;;4.80;3.17;;;;;;;22.08;45.36;95350.97;5069539;28;20027;-80
2022/08/02 05:46:00;;;;;;;5.78;3.35;;;;;;;22.22;45.67;95362.34;5088358;28;20020;-80
2022/08/02 05:48:25;;;;;;;5.20;3.08;;;;;;;22.38;45.67;95367.16;5069643;28;20024;-81
2022/08/02 05:50:54;;;;;;;5.80;2.90;;;;;;;22.41;46.30;95356.56;5088379;28;20047;-79
2022/08/02 05:53:58;;;;;;;7.07;3.42;;;;;;;22.31;45.45;95362.72;5053049;28;20388;-79
2022/08/02 05:56:35;;;;;;;6.43;3.80;;;;;;;22.10;45.87;95367.91;5046161;28;20067;-79
2022/08/02 05:59:04;;;;;;;5.28;3.30;;;;;;;22.02;46.94;95367.53;5053834;28;20024;-79
2022/08/02 06:01:37;;;;;;;5.85;3.60;;;;;;;22.08;45.97;95369.25;5069511;28;20139;-79
2022/08/02 06:04:07;;;;;;;7.40;3.70;;;;;;;22.26;45.41;95370.03;5054471;28;20497;-79
2022/08/02 06:06:33;;;;;;;6.13;3.33;;;;;;;22.37;45.55;95363.63;5069638;28;20073;-79
2022/08/02 06:09:02;;;;;;;6.38;3.60;;;;;;;22.45;45.21;95373.28;5053231;28;20028;-80
2022/08/02 06:11:38;;;;;;;19.85;4.50;;;;;;;22.65;45.41;95369.19;5069660;28;20025;-80
2022/08/02 06:14:05;;;;;;;9.82;3.50;;;;;;;22.82;45.07;95369.09;5069177;28;20554;-79
2022/08/02 06:16:30;;;;;;;9.80;3.38;;;;;;;23.04;45.66;95371.78;5069734;28;20024;-80
2022/08/02 06:18:56;;;;;;;6.43;3.10;;;;;;;23.02;45.19;95368.47;5068958;28;20031;-81
2022/08/02 06:21:21;;;;;;;6.10;3.17;;;;;;;23.08;44.51;95366.63;5053098;28;20039;-79
2022/08/02 06:23:47;;;;;;;7.47;3.40;;;;;;;23.30;44.59;95371.19;5052213;28;20027;-79
2022/08/02 06:26:12;;;;;;;8.07;3.30;;;;;;;23.52;44.84;95378.53;5052698;28;20031;-80
2022/08/02 06:28:38;;;;;;;6.45;3.45;;;;;;;23.27;44.01;95383.47;5052304;28;20112;-80
2022/08/02 06:31:06;;;;;;;6.05;3.08;;;;;;;23.49;43.70;95379.06;5052486;28;20399;-79
2022/08/02 06:33:32;;;;;;;4.15;2.70;;;;;;;23.20;43.95;95382.84;5069281;28;20043;-80
2022/08/02 06:36:02;;;;;;;6.28;2.80;;;;;;;23.25;44.50;95385.63;5068833;28;20486;-80
2022/08/02 06:38:40;;;;;;;6.18;2.92;;;;;;;23.25;44.02;95387.56;5087707;28;20498;-81
2022/08/02 06:41:07;;;;;;;4.32;2.83;;;;;;;23.20;44.04;95382.84;5030067;28;20041;-80
2022/08/02 06:43:58;;;;;;;5.38;2.67;;;;;;;23.23;43.52;95387.81;5045836;28;20021;-81
2022/08/02 06:46:24;;;;;;;11.82;2.88;;;;;;;23.41;43.48;95388.53;5045615;28;20044;-80
2022/08/02 06:48:49;;;;;;;5.45;2.63;;;;;;;23.33;43.64;95387.06;5028516;28;20033;-79
2022/08/02 06:51:14;;;;;;;6.88;2.60;;;;;;;23.23;43.95;95382.34;5045669;28;20086;-80
2022/08/02 06:53:40;;;;;;;4.70;2.40;;;;;;;23.14;44.04;95381.16;5028746;28;20033;-79
2022/08/02 06:56:06;;;;;;;4.22;2.28;;;;;;;23.25;43.91;95382.91;5045426;28;20024;-80
2022/08/02 06:58:31;;;;;;;3.30;2.40;;;;;;;23.02;42.78;95379.41;5045336;28;20071;-81
2022/08/02 07:00:56;;;;;;;6.57;2.50;;;;;;;22.96;43.24;95378.53;5045346;28;20032;-81
2022/08/02 07:03:24;;;;;;;3.63;2.15;;;;;;;23.23;42.60;95376.84;5045320;28;20530;-79
2022/08/02 07:05:50;;;;;;;3.63;2.03;;;;;;;23.29;41.30;95377.75;5044991;28;20116;-79
2022/08/02 07:08:16;;;;;;;3.75;1.80;;;;;;;23.41;41.26;95377.59;5045235;28;20538;-80
2022/08/02 07:10:41;;;;;;;6.88;2.08;;;;;;;23.28;40.38;95367.91;5045125;28;20029;-81
2022/08/02 07:13:09;;;;;;;2.83;1.90;;;;;;;23.28;39.75;95367.91;5053842;28;20025;-81
2022/08/02 07:15:35;;;;;;;3.97;1.90;;;;;;;23.08;40.60;95370.19;5028303;28;20090;-79
2022/08/02 07:18:00;;;;;;;4.13;1.80;;;;;;;23.11;40.73;95373.47;5045285;28;20032;-79
2022/08/02 07:20:26;;;;;;;6.47;2.03;;;;;;;23.20;40.70;95377.38;5044890;28;20024;-79
2022/08/02 07:22:52;;;;;;;6.22;1.73;;;;;;;23.45;39.97;95376.00;5046063;28;20448;-80
2022/08/02 07:25:17;;;;;;;3.83;1.83;;;;;;;23.54;41.08;95376.34;5045470;28;20029;-80
2022/08/02 07:27:43;;;;;;;3.35;1.80;;;;;;;23.64;40.52;95376.44;5044623;28;20029;-80
2022/08/02 07:30:09;;;;;;;5.20;1.90;;;;;;;23.38;40.51;95369.88;5046105;28;20029;-80
2022/08/02 07:32:34;;;;;;;7.32;1.95;;;;;;;23.63;40.14;95365.75;5044555;28;20021;-79
2022/08/02 07:35:00;;;;;;;4.55;1.83;;;;;;;24.01;39.65;95363.81;5044926;28;20074;-80
2022/08/02 07:37:30;;;;;;;8.52;2.00;;;;;;;23.92;39.75;95368.13;5044535;28;20047;-80
2022/08/02 07:39:56;;;;;;;3.45;1.63;;;;;;;23.81;39.53;95362.56;5038755;28;20045;-80
2022/08/02 07:42:21;;;;;;;2.13;1.48;;;;;;;24.06;39.21;95361.09;5065671;28;20090;-80
2022/08/02 07:44:47;;;;;;;4.15;1.77;;;;;;;24.34;39.54;95360.16;5048095;28;20013;-80
2022/08/02 07:47:12;;;;;;;6.30;2.20;;;;;;;24.23;39.04;95362.03;5064272;28;20468;-80
2022/08/02 07:49:38;;;;;;;4.47;1.50;;;;;;;23.86;38.45;95363.72;5030929;28;20028;-79
2022/08/02 07:52:03;;;;;;;4.35;1.25;;;;;;;24.15;37.95;95363.34;5048160;28;20028;-81
2022/08/02 07:54:29;;;;;;;5.30;1.70;;;;;;;23.97;38.55;95359.13;5065660;28;20025;-79
2022/08/02 07:56:55;;;;;;;3.80;1.50;;;;;;;24.24;37.95;95361.78;5066199;28;20037;-80
2022/08/02 07:59:21;;;;;;;4.28;1.40;;;;;;;24.40;37.23;95364.56;5064270;28;20024;-80
2022/08/02 08:01:48;;;;;;;2.05;1.48;;;;;;;24.39;37.37;95360.19;5065608;28;20056;-80
2022/08/02 08:04:16;;;;;;;3.55;1.13;;;;;;;24.20;38.16;95357.91;5047530;28;20025;-80
2022/08/02 08:06:42;;;;;;;4.25;1.30;;;;;;;23.87;39.20;95346.19;5065617;28;20518;-79
2022/08/02 08:09:09;;;;;;;3.97;1.35;;;;;;;23.91;38.82;95345.38;5064294;28;20021;-80
2022/08/02 08:11:34;;;;;;;3.67;1.35;;;;;;;23.77;38.41;95353.25;5065268;28;20064;-80
2022/08/02 08:13:59;;;;;;;5.00;1.60;;;;;;;23.89;38.97;95355.78;5064681;28;20481;-79
2022/08/02 08:16:27;;;;;;;4.05;1.30;;;;;;;23.95;38.72;95362.97;5065269;28;20098;-80
2022/08/02 08:18:53;;;;;;;2.65;1.75;;;;;;;24.18;38.73;95360.09;5064850;28;20031;-80
2022/08/02 08:21:18;;;;;;;3.33;1.20;;;;;;;23.80;38.14;95355.47;5047111;28;20024;-80
2022/08/02 08:23:44;;;;;;;4.45;1.10;;;;;;;23.80;38.87;95358.19;5065496;28;20388;-80
2022/08/02 08:26:10;;;;;;;2.05;1.30;;;;;;;24.08;39.38;95358.09;5063811;28;20101;-80
2022/08/02 08:28:35;;;;;;;1.98;1.23;;;;;;;24.62;37.97;95355.34;5065153;28;20031;-80
2022/08/02 08:31:01;;;;;;;2.80;1.27;;;;;;;24.47;39.14;95342.41;5047278;28;20511;-80
2022/08/02 08:33:26;;;;;;;3.22;1.38;;;;;;;24.73;38.23;95346.03;5046631;28;20024;-79
2022/08/02 08:35:52;;;;;;;6.88;1.70;;;;;;;24.74;37.54;95341.38;5047553;28;20515;-80
2022/08/02 08:38:18;;;;;;;1.75;1.13;;;;;;;24.56;37.50;95347.09;5046844;28;20032;-80
2022/08/02 08:40:44;;;;;;;3.75;1.30;;;;;;;24.42;38.15;95348.69;5063708;28;20051;-80
2022/08/02 08:43:12;;;;;;;3.90;1.20;;;;;;;24.54;38.39;95349.28;5063726;28;20021;-80
2022/08/02 08:45:38;;;;;;;2.63;1.10;;;;;;;24.98;38.28;95355.47;5063282;28;20554;-79
2022/08/02 08:48:11;;;;;;;12.38;1.80;;;;;;;25.35;37.21;95350.00;5030419;28;20138;-81
2022/08/02 08:50:36;;;;;;;1.52;1.00;;;;;;;25.70;36.22;95342.88;5046998;28;20039;-81
2022/08/02 08:53:04;;;;;;;2.35;0.98;;;;;;;25.78;35.84;95350.56;5047423;28;20029;-79
2022/08/02 08:55:30;;;;;;;4.53;1.08;;;;;;;26.03;35.31;95343.41;5046574;28;20529;-80
2022/08/02 08:57:56;;;;;;;3.55;1.10;;;;;;;26.08;34.86;95344.47;5064031;28;20115;-80
2022/08/02 09:00:21;;;;;;;1.35;0.88;;;;;;;26.01;34.28;95340.09;5063128;28;20439;-79
2022/08/02 09:02:46;;;;;;;4.63;1.10;;;;;;;25.98;34.93;95345.31;5046735;28;20029;-81
2022/08/02 09:05:13;;;;;;;1.23;0.80;;;;;;;25.73;35.57;95336.84;5030082;28;20036;-81
2022/08/02 09:07:41;;;;;;;6.10;1.15;;;;;;;25.86;35.37;95348.38;5046329;28;20031;-80
2022/08/02 09:10:32;;;;;;;5.32;1.10;;;;;;;26.22;35.60;95348.28;5047684;28;20059;-80
2022/08/02 09:13:06;;;;;;;3.67;1.17;;;;;;;26.01;36.13;95340.09;5064631;28;20028;-80
2022/08/02 09:15:32;;;;;;;4.70;1.10;;;;;;;25.93;36.15;95348.91;5064427;28;20102;-80
2022/08/02 09:17:57;;;;;;;2.17;1.25;;;;;;;26.31;36.04;95351.25;5063027;28;20027;-80
2022/08/02 09:20:22;;;;;;;3.88;1.02;;;;;;;25.80;36.01;95339.31;5063090;28;20028;-80
2022/08/02 09:23:07;;;;;;;5.38;1.38;;;;;;;25.43;35.68;95341.22;5064340;28;20119;-81
2022/08/02 09:25:33;;;;;;;4.20;1.23;;;;;;;25.30;36.23;95337.13;5046443;28;20267;-81
2022/08/02 09:27:58;;;;;;;4.82;1.13;;;;;;;25.64;37.97;95335.75;5047323;28;20020;-80
2022/08/02 09:30:25;;;;;;;4.03;1.10;;;;;;;26.08;36.13;95334.31;5046589;28;20107;-80
2022/08/02 09:32:51;;;;;;;2.65;1.15;;;;;;;26.25;35.34;95333.16;5063063;28;20024;-80
2022/08/02 09:35:33;;;;;;;3.55;1.20;;;;;;;26.27;36.27;95330.94;5047142;28;20110;-79
2022/08/02 09:38:12;;;;;;;3.40;1.40;;;;;;;26.31;35.94;95331.22;5063084;28;20031;-80
2022/08/02 09:40:38;;;;;;;6.28;1.20;;;;;;;26.35;35.14;95321.31;5046882;28;20527;-79
2022/08/02 09:43:05;;;;;;;3.05;0.93;;;;;;;26.34;34.82;95330.69;5064122;28;20033;-80
2022/08/02 09:45:34;;;;;;;2.72;0.90;;;;;;;26.53;34.56;95328.97;5047165;28;20060;-79
2022/08/02 09:48:08;;;;;;;9.90;2.20;;;;;;;26.58;34.79;95317.13;5062947;28;20031;-80
2022/08/02 09:50:38;;;;;;;2.95;0.88;;;;;;;26.37;35.60;95319.13;5049449;28;20023;-80
2022/08/02 09:53:04;;;;;;;3.72;1.40;;;;;;;26.37;36.68;95330.13;5033609;28;20024;-81
2022/08/02 09:55:29;;;;;;;3.20;1.27;;;;;;;26.63;35.20;95319.81;5066563;28;20185;-81
2022/08/02 09:57:55;;;;;;;16.55;2.58;;;;;;;26.63;35.34;95314.31;5050191;28;20161;-79
2022/08/02 10:00:20;;;;;;;1.65;1.00;;;;;;;26.61;35.88;95311.03;5049520;28;20024;-80
2022/08/02 10:03:05;;;;;;;1.67;0.77;;;;;;;26.59;34.22;95317.91;5066325;28;20039;-80
2022/08/02 10:05:51;;;;;;;3.03;1.00;;;;;;;26.57;36.25;95317.41;5066383;28;20074;-80
2022/08/02 10:08:16;;;;;;;34.30;3.08;;;;;;;26.28;34.43;95316.94;5052067;28;20040;-81
2022/08/02 10:10:42;;;;;;;39.92;4.00;;;;;;;26.33;34.33;95321.59;5066535;28;20453;-80
2022/08/02 10:13:09;;;;;;;4.55;1.27;;;;;;;26.44;36.26;95316.88;5049277;28;20024;-79
2022/08/02 10:15:38;;;;;;;2.78;1.05;;;;;;;25.98;35.96;95310.44;5066627;28;20041;-80
2022/08/02 10:18:07;;;;;;;3.25;1.10;;;;;;;26.53;36.32;95306.97;5049383;28;20112;-81
2022/08/02 10:20:36;;;;;;;1.33;0.80;;;;;;;26.67;36.67;95311.81;5066088;28;20035;-80
2022/08/02 10:23:02;;;;;;;2.05;0.90;;;;;;;26.21;35.96;95304.59;5065897;28;20491;-81
2022/08/02 10:25:28;;;;;;;2.03;1.00;;;;;;;26.02;35.43;95303.28;5065705;28;20028;-81
2022/08/02 10:27:53;;;;;;;59.85;7.00;;;;;;;26.45;35.64;95301.22;5049420;28;20352;-80
2022/08/02 10:30:20;;;;;;;1.92;1.00;;;;;;;26.38;36.04;95298.78;5048888;28;20097;-81
2022/08/02 10:32:47;;;;;;;1.42;0.80;;;;;;;26.62;35.75;95307.19;5049949;28;20059;-80
2022/08/02 10:35:14;;;;;;;2.08;0.75;;;;;;;26.91;35.05;95303.72;5048931;28;20020;-81
2022/08/02 10:37:40;;;;;;;1.30;0.73;;;;;;;26.86;34.39;95291.94;5065864;28;20048;-80
2022/08/02 10:40:05;;;;;;;1.50;0.80;;;;;;;26.87;34.61;95296.31;5048626;28;20174;-79
2022/08/02 10:42:45;;;;;;;5.47;1.25;;;;;;;26.92;34.38;95299.03;5065412;28;20039;-80
2022/08/02 10:45:13;;;;;;;8.93;1.92;;;;;;;27.04;35.24;95298.69;5065698;28;20027;-80
2022/08/02 10:47:39;;;;;;;4.53;1.02;;;;;;;27.14;35.17;95289.53;5048633;28;20404;-81
2022/08/02 10:50:05;;;;;;;2.15;0.68;;;;;;;27.31;34.87;95291.88;5067719;28;20532;-80
2022/08/02 10:52:30;;;;;;;0.85;0.60;;;;;;;27.40;32.23;95294.84;5065382;28;20425;-80
2022/08/02 10:54:57;;;;;;;2.05;0.55;;;;;;;27.50;31.43;95294.75;5065385;28;20104;-80
2022/08/02 10:57:41;;;;;;;0.88;0.50;;;;;;;27.49;30.79;95290.34;5065464;28;20067;-81
2022/08/02 11:00:11;;;;;;;1.02;0.43;;;;;;;27.52;32.27;95287.03;5065660;28;20025;-80
2022/08/02 11:02:45;;;;;;;1.30;0.60;;;;;;;27.64;35.34;95294.91;5065687;28;20020;-80
2022/08/02 11:05:31;;;;;;;4.60;0.80;;;;;;;27.61;32.95;95292.72;5048459;28;20028;-81
2022/08/02 11:07:56;;;;;;;1.50;0.50;;;;;;;27.62;32.45;95285.28;5032091;28;20493;-80
2022/08/02 11:10:25;;;;;;;1.77;0.70;;;;;;;27.64;32.86;95294.06;5065074;28;20538;-81
2022/08/02 11:13:10;;;;;;;1.27;0.50;;;;;;;27.70;32.54;95292.94;5066284;28;20035;-80
2022/08/02 11:15:51;;;;;;;1.02;0.60;;;;;;;27.67;32.77;95288.00;5048510;28;20089;-80
2022/08/02 11:18:16;;;;;;;1.40;0.50;;;;;;;27.74;33.19;95298.69;5065783;28;20486;-80
2022/08/02 11:20:42;;;;;;;1.33;0.50;;;;;;;27.62;31.90;95288.03;5048668;28;20024;-81
2022/08/02 11:23:33;;;;;;;4.13;0.73;;;;;;;27.48;32.82;95296.16;5065829;28;20564;-81
2022/08/02 11:25:58;;;;;;;1.10;0.63;;;;;;;27.39;32.96;95288.50;5066203;28;20028;-81
2022/08/02 11:28:24;;;;;;;0.80;0.43;;;;;;;27.31;33.23;95291.06;5064800;28;20453;-82
2022/08/02 11:30:59;;;;;;;6.57;2.85;;;;;;;27.22;33.62;95290.84;5047934;28;20384;-80
2022/08/02 11:33:32;;;;;;;10.70;7.15;;;;;;;27.44;34.35;95282.13;5066305;28;20407;-80
2022/08/02 11:36:05;;;;;;;6.15;3.80;;;;;;;27.64;34.15;95291.31;5047858;28;20030;-81
2022/08/02 11:38:30;;;;;;;1.67;0.80;;;;;;;27.67;33.56;95287.16;5065779;28;20502;-81